createdAt,value
2019-04-11T00:00:59.975Z,1015.32
2019-04-11T00:02:00.487Z,1015.37
2019-04-11T00:03:00.822Z,1015.37
2019-04-11T00:03:59.941Z,1015.35
2019-04-11T00:04:59.928Z,1015.36
2019-04-11T00:05:59.945Z,1015.37
2019-04-11T00:07:00.260Z,1015.38
2019-04-11T00:08:00.145Z,1015.42
2019-04-11T00:09:00.676Z,1015.42
2019-04-11T00:10:00.644Z,1015.43
2019-04-11T00:11:00.250Z,1015.43
2019-04-11T00:12:00.062Z,1015.43
2019-04-11T00:13:01.250Z,1015.44
2019-04-11T00:14:00.019Z,1015.44
2019-04-11T00:15:00.206Z,1015.43
2019-04-11T00:16:01.196Z,1015.47
2019-04-11T00:17:00.062Z,1015.49
2019-04-11T00:18:00.655Z,1015.49
2019-04-11T00:19:00.074Z,1015.53
2019-04-11T00:20:00.084Z,1015.51
2019-04-11T00:21:00.364Z,1015.53
2019-04-11T00:22:01.522Z,1015.53
2019-04-11T00:23:00.111Z,1015.51
2019-04-11T00:24:00.743Z,1015.57
2019-04-11T00:25:01.052Z,1015.48
2019-04-11T00:26:00.150Z,1015.54
2019-04-11T00:27:00.389Z,1015.51
2019-04-11T00:28:01.443Z,1015.54
2019-04-11T00:29:00.175Z,1015.52
2019-04-11T00:30:00.184Z,1015.50
2019-04-11T00:31:00.821Z,1015.54
2019-04-11T00:32:01.084Z,1015.52
2019-04-11T00:33:00.259Z,1015.51
2019-04-11T00:34:00.458Z,1015.51
2019-04-11T00:35:01.526Z,1015.54
2019-04-11T00:36:00.245Z,1015.54
2019-04-11T00:37:00.996Z,1015.54
2019-04-11T00:38:01.402Z,1015.51
2019-04-11T00:39:01.327Z,1015.51
2019-04-11T00:41:01.658Z,1015.52
2019-04-11T00:42:00.363Z,1015.49
2019-04-11T00:43:01.113Z,1015.54
2019-04-11T00:44:00.835Z,1015.53
2019-04-11T00:45:00.520Z,1015.54
2019-04-11T00:46:01.809Z,1015.57
2019-04-11T00:47:00.823Z,1015.59
2019-04-11T00:48:01.582Z,1015.62
2019-04-11T00:49:00.381Z,1015.57
2019-04-11T00:50:00.993Z,1015.62
2019-04-11T00:51:01.390Z,1015.60
2019-04-11T00:52:00.435Z,1015.58
2019-04-11T00:53:01.492Z,1015.58
2019-04-11T00:54:00.668Z,1015.60
2019-04-11T00:55:00.445Z,1015.62
2019-04-11T00:56:00.464Z,1015.61
2019-04-11T00:57:00.872Z,1015.60
2019-04-11T00:58:01.371Z,1015.60
2019-04-11T00:59:00.489Z,1015.57
2019-04-11T01:00:00.632Z,1015.54
2019-04-11T01:01:01.656Z,1015.60
2019-04-11T01:02:00.990Z,1015.58
2019-04-11T01:03:00.522Z,1015.61
2019-04-11T01:04:01.333Z,1015.64
2019-04-11T01:05:01.360Z,1015.65
2019-04-11T01:06:01.576Z,1015.64
2019-04-11T01:07:00.726Z,1015.62
2019-04-11T01:08:00.577Z,1015.64
2019-04-11T01:09:00.597Z,1015.65
2019-04-11T01:10:01.095Z,1015.60
2019-04-11T01:11:00.705Z,1015.64
2019-04-11T01:12:00.653Z,1015.66
2019-04-11T01:13:00.838Z,1015.69
2019-04-11T01:14:01.577Z,1015.69
2019-04-11T01:15:00.647Z,1015.69
2019-04-11T01:16:01.085Z,1015.69
2019-04-11T01:17:01.126Z,1015.71
2019-04-11T01:18:01.458Z,1015.73
2019-04-11T01:19:00.688Z,1015.67
2019-04-11T01:20:00.690Z,1015.71
2019-04-11T01:21:01.947Z,1015.71
2019-04-11T01:22:01.264Z,1015.73
2019-04-11T01:23:00.750Z,1015.73
2019-04-11T01:24:01.720Z,1015.74
2019-04-11T01:25:00.948Z,1015.76
2019-04-11T01:26:01.185Z,1015.74
2019-04-11T01:27:01.483Z,1015.74
2019-04-11T01:28:00.771Z,1015.75
2019-04-11T01:29:00.965Z,1015.75
2019-04-11T01:30:02.082Z,1015.76
2019-04-11T01:31:01.062Z,1015.77
2019-04-11T01:32:00.810Z,1015.75
2019-04-11T01:33:00.820Z,1015.76
2019-04-11T01:34:02.278Z,1015.76
2019-04-11T01:35:01.300Z,1015.77
2019-04-11T01:36:00.848Z,1015.80
2019-04-11T01:37:01.689Z,1015.78
2019-04-11T01:38:00.968Z,1015.80
2019-04-11T01:39:01.017Z,1015.78
2019-04-11T01:40:01.510Z,1015.79
2019-04-11T01:41:00.900Z,1015.79
2019-04-11T01:42:01.131Z,1015.81
2019-04-11T01:43:01.925Z,1015.85
2019-04-11T01:44:04.196Z,1015.84
2019-04-11T01:45:01.126Z,1015.84
2019-04-11T01:46:02.130Z,1015.83
2019-04-11T01:47:00.965Z,1015.80
2019-04-11T01:48:01.569Z,1015.83
2019-04-11T01:49:00.983Z,1015.80
2019-04-11T01:50:00.988Z,1015.81
2019-04-11T01:51:01.249Z,1015.84
2019-04-11T01:52:02.432Z,1015.83
2019-04-11T01:53:01.020Z,1015.87
2019-04-11T01:54:01.524Z,1015.86
2019-04-11T01:55:02.016Z,1015.85
2019-04-11T01:56:01.111Z,1015.83
2019-04-11T01:57:01.682Z,1015.85
2019-04-11T01:58:01.070Z,1015.86
2019-04-11T01:59:01.089Z,1015.84
2019-04-11T02:00:01.998Z,1015.91
2019-04-11T02:01:01.107Z,1015.87
2019-04-11T02:02:01.264Z,1015.86
2019-04-11T02:03:01.267Z,1015.86
2019-04-11T02:04:01.135Z,1015.83
2019-04-11T02:05:01.145Z,1015.88
2019-04-11T02:06:01.285Z,1015.89
2019-04-11T02:07:01.163Z,1015.88
2019-04-11T02:08:01.168Z,1015.89
2019-04-11T02:09:01.907Z,1015.89
2019-04-11T02:10:02.379Z,1015.86
2019-04-11T02:11:01.397Z,1015.89
2019-04-11T02:13:01.727Z,1015.90
2019-04-11T02:14:10.839Z,1015.91
2019-04-11T02:15:01.793Z,1015.93
2019-04-11T02:16:02.905Z,1015.99
2019-04-11T02:17:01.426Z,1015.97
2019-04-11T02:18:01.399Z,1016.01
2019-04-11T02:19:01.806Z,1016.01
2019-04-11T02:20:01.295Z,1016.01
2019-04-11T02:21:01.300Z,1016.04
2019-04-11T02:22:02.174Z,1016.04
2019-04-11T02:23:02.316Z,1016.03
2019-04-11T02:24:01.611Z,1016.02
2019-04-11T02:25:01.341Z,1016.02
2019-04-11T02:26:01.356Z,1016.08
2019-04-11T02:27:01.377Z,1016.04
2019-04-11T02:28:01.368Z,1016.06
2019-04-11T02:29:01.424Z,1016.06
2019-04-11T02:30:01.878Z,1016.04
2019-04-11T02:31:02.774Z,1016.09
2019-04-11T02:32:04.922Z,1016.06
2019-04-11T02:33:01.425Z,1016.11
2019-04-11T02:34:02.453Z,1016.11
2019-04-11T02:35:04.303Z,1016.09
2019-04-11T02:36:03.221Z,1016.12
2019-04-11T02:37:02.360Z,1016.10
2019-04-11T02:38:02.888Z,1016.15
2019-04-11T02:39:05.742Z,1016.15
2019-04-11T02:40:03.092Z,1016.14
2019-04-11T02:41:03.330Z,1016.16
2019-04-11T02:42:03.718Z,1016.15
2019-04-11T02:43:01.591Z,1016.16
2019-04-11T02:44:03.182Z,1016.18
2019-04-11T02:45:18.203Z,1016.12
2019-04-11T02:47:08.414Z,1016.19
2019-04-11T02:48:01.784Z,1016.19
2019-04-11T02:49:03.098Z,1016.20
2019-04-11T02:50:01.631Z,1016.19
2019-04-11T02:51:03.163Z,1016.20
2019-04-11T02:52:02.707Z,1016.17
2019-04-11T02:53:02.953Z,1016.15
2019-04-11T02:54:02.261Z,1016.24
2019-04-11T02:55:03.445Z,1016.18
2019-04-11T02:56:02.837Z,1016.18
2019-04-11T02:57:02.754Z,1016.17
2019-04-11T02:58:03.234Z,1016.20
2019-04-11T02:59:02.320Z,1016.21
2019-04-11T03:00:02.093Z,1016.16
2019-04-11T03:01:05.013Z,1016.20
2019-04-11T03:03:03.541Z,1016.18
2019-04-11T03:04:04.335Z,1016.18
2019-04-11T03:05:02.789Z,1016.15
2019-04-11T03:06:02.778Z,1016.16
2019-04-11T03:07:01.757Z,1016.16
2019-04-11T03:08:06.834Z,1016.15
2019-04-11T03:09:02.493Z,1016.17
2019-04-11T03:10:03.139Z,1016.15
2019-04-11T03:11:01.943Z,1016.20
2019-04-11T03:12:02.948Z,1016.18
2019-04-11T03:13:02.890Z,1016.17
2019-04-11T03:15:16.496Z,1016.17
2019-04-11T03:16:17.212Z,1016.20
2019-04-11T03:17:11.901Z,1016.15
2019-04-11T03:20:13.025Z,1016.20
2019-04-11T03:21:07.179Z,1016.22
2019-04-11T03:22:03.280Z,1016.20
2019-04-11T03:23:05.712Z,1016.21
2019-04-11T03:24:02.882Z,1016.24
2019-04-11T03:25:03.111Z,1016.23
2019-04-11T03:26:03.207Z,1016.26
2019-04-11T03:27:04.803Z,1016.25
2019-04-11T03:29:02.542Z,1016.23
2019-04-11T03:30:02.993Z,1016.22
2019-04-11T03:31:37.274Z,1016.24
2019-04-11T03:32:42.486Z,1016.24
2019-04-11T03:33:58.040Z,1016.24
2019-04-11T03:34:52.005Z,1016.31
2019-04-11T03:38:24.664Z,1016.27
2019-04-11T03:39:25.287Z,1016.26
2019-04-11T03:40:22.385Z,1016.24
2019-04-11T03:41:20.388Z,1016.26
2019-04-11T03:42:17.203Z,1016.29
2019-04-11T03:43:15.217Z,1016.27
2019-04-11T03:44:12.101Z,1016.30
2019-04-11T03:45:21.043Z,1016.27
2019-04-11T03:46:21.468Z,1016.34
2019-04-11T03:47:16.830Z,1016.33
2019-04-11T03:48:17.958Z,1016.37
2019-04-11T03:49:16.469Z,1016.34
2019-04-11T03:50:08.390Z,1016.36
2019-04-11T03:52:03.658Z,1016.31
2019-04-11T03:53:04.081Z,1016.35
2019-04-11T03:54:02.629Z,1016.38
2019-04-11T03:55:04.524Z,1016.36
2019-04-11T03:57:03.618Z,1016.35
2019-04-11T03:58:03.827Z,1016.37
2019-04-11T03:59:03.823Z,1016.39
2019-04-11T04:00:04.254Z,1016.39
2019-04-11T04:01:05.518Z,1016.37
2019-04-11T04:02:03.260Z,1016.40
2019-04-11T04:03:04.593Z,1016.42
2019-04-11T04:04:02.720Z,1016.41
2019-04-11T04:05:04.041Z,1016.42
2019-04-11T04:06:02.329Z,1016.44
2019-04-11T04:07:02.624Z,1016.43
2019-04-11T04:08:04.527Z,1016.45
2019-04-11T04:09:02.832Z,1016.46
2019-04-11T04:10:03.023Z,1016.47
2019-04-11T04:11:04.020Z,1016.50
2019-04-11T04:12:02.938Z,1016.48
2019-04-11T04:13:03.332Z,1016.51
2019-04-11T04:14:04.167Z,1016.46
2019-04-11T04:15:04.583Z,1016.50
2019-04-11T04:16:12.048Z,1016.47
2019-04-11T04:17:04.247Z,1016.47
2019-04-11T04:18:03.554Z,1016.50
2019-04-11T04:19:03.446Z,1016.49
2019-04-11T04:20:04.961Z,1016.51
2019-04-11T04:21:04.151Z,1016.52
2019-04-11T04:22:04.913Z,1016.54
2019-04-11T04:23:03.243Z,1016.53
2019-04-11T04:24:04.079Z,1016.59
2019-04-11T04:25:04.266Z,1016.58
2019-04-11T04:26:03.137Z,1016.61
2019-04-11T04:27:04.239Z,1016.60
2019-04-11T04:28:03.090Z,1016.61
2019-04-11T04:29:04.327Z,1016.59
2019-04-11T04:30:05.261Z,1016.65
2019-04-11T04:31:04.439Z,1016.64
2019-04-11T04:33:02.953Z,1016.67
2019-04-11T04:34:03.806Z,1016.67
2019-04-11T04:35:06.974Z,1016.67
2019-04-11T04:36:06.501Z,1016.69
2019-04-11T04:38:03.061Z,1016.75
2019-04-11T04:39:04.154Z,1016.76
2019-04-11T04:40:21.622Z,1016.77
2019-04-11T04:41:16.896Z,1016.77
2019-04-11T04:42:08.882Z,1016.78
2019-04-11T04:43:05.138Z,1016.83
2019-04-11T04:44:04.497Z,1016.82
2019-04-11T04:45:04.814Z,1016.80
2019-04-11T04:46:20.528Z,1016.80
2019-04-11T04:47:13.642Z,1016.86
2019-04-11T04:48:07.815Z,1016.88
2019-04-11T04:49:04.655Z,1016.86
2019-04-11T04:50:04.560Z,1016.87
2019-04-11T04:51:07.793Z,1016.89
2019-04-11T04:52:04.046Z,1016.87
2019-04-11T04:53:02.974Z,1016.89
2019-04-11T04:54:03.984Z,1016.90
2019-04-11T04:55:05.674Z,1016.95
2019-04-11T04:56:03.196Z,1016.97
2019-04-11T04:57:05.047Z,1016.94
2019-04-11T04:58:02.801Z,1016.95
2019-04-11T04:59:04.259Z,1016.97
2019-04-11T05:00:04.963Z,1017.02
2019-04-11T05:01:04.165Z,1016.99
2019-04-11T05:02:04.000Z,1017.01
2019-04-11T05:03:02.929Z,1017.05
2019-04-11T05:04:04.575Z,1017.02
2019-04-11T05:05:04.232Z,1017.05
2019-04-11T05:06:04.037Z,1017.03
2019-04-11T05:07:03.364Z,1017.07
2019-04-11T05:08:03.076Z,1017.04
2019-04-11T05:09:04.180Z,1017.05
2019-04-11T05:10:04.486Z,1017.07
2019-04-11T05:11:04.530Z,1017.08
2019-04-11T05:12:03.428Z,1017.08
2019-04-11T05:14:03.119Z,1017.12
2019-04-11T05:15:03.726Z,1017.12
2019-04-11T05:17:04.359Z,1017.16
2019-04-11T05:18:04.093Z,1017.16
2019-04-11T05:19:03.000Z,1017.11
2019-04-11T05:20:03.106Z,1017.13
2019-04-11T05:21:03.315Z,1017.14
2019-04-11T05:22:03.186Z,1017.16
2019-04-11T05:23:04.231Z,1017.16
2019-04-11T05:24:04.058Z,1017.20
2019-04-11T05:25:03.855Z,1017.16
2019-04-11T05:26:03.500Z,1017.20
2019-04-11T05:27:04.143Z,1017.18
2019-04-11T05:28:04.304Z,1017.18
2019-04-11T05:29:04.826Z,1017.19
2019-04-11T05:30:04.918Z,1017.18
2019-04-11T05:31:03.117Z,1017.18
2019-04-11T05:32:03.179Z,1017.22
2019-04-11T05:33:04.011Z,1017.22
2019-04-11T05:34:03.512Z,1017.25
2019-04-11T05:35:03.149Z,1017.24
2019-04-11T05:36:03.968Z,1017.26
2019-04-11T05:37:03.954Z,1017.26
2019-04-11T05:38:03.169Z,1017.31
2019-04-11T05:39:03.332Z,1017.30
2019-04-11T05:40:03.239Z,1017.30
2019-04-11T05:41:04.261Z,1017.32
2019-04-11T05:42:04.962Z,1017.34
2019-04-11T05:43:03.970Z,1017.31
2019-04-11T05:44:07.653Z,1017.33
2019-04-11T05:45:03.349Z,1017.29
2019-04-11T05:46:10.173Z,1017.31
2019-04-11T05:47:05.597Z,1017.37
2019-04-11T05:48:03.329Z,1017.32
2019-04-11T05:49:05.384Z,1017.33
2019-04-11T05:50:07.531Z,1017.31
2019-04-11T05:51:06.837Z,1017.33
2019-04-11T05:52:06.103Z,1017.33
2019-04-11T05:53:05.653Z,1017.33
2019-04-11T05:54:07.353Z,1017.41
2019-04-11T05:55:04.928Z,1017.35
2019-04-11T05:56:03.663Z,1017.32
2019-04-11T05:57:03.444Z,1017.35
2019-04-11T05:58:08.655Z,1017.36
2019-04-11T05:59:03.898Z,1017.39
2019-04-11T06:00:04.049Z,1017.35
2019-04-11T06:01:03.534Z,1017.40
2019-04-11T06:02:07.258Z,1017.42
2019-04-11T06:03:03.815Z,1017.40
2019-04-11T06:06:04.744Z,1017.47
2019-04-11T06:07:03.558Z,1017.42
2019-04-11T06:08:05.473Z,1017.44
2019-04-11T06:10:08.480Z,1017.49
2019-04-11T06:11:04.678Z,1017.48
2019-04-11T06:12:03.636Z,1017.49
2019-04-11T06:13:04.563Z,1017.50
2019-04-11T06:14:05.714Z,1017.51
2019-04-11T06:15:03.964Z,1017.46
2019-04-11T06:16:04.631Z,1017.47
2019-04-11T06:17:03.561Z,1017.51
2019-04-11T06:18:04.814Z,1017.50
2019-04-11T06:19:04.375Z,1017.50
2019-04-11T06:20:04.058Z,1017.51
2019-04-11T06:21:03.982Z,1017.57
2019-04-11T06:22:04.567Z,1017.55
2019-04-11T06:23:04.877Z,1017.55
2019-04-11T06:24:03.644Z,1017.57
2019-04-11T06:25:04.142Z,1017.56
2019-04-11T06:26:03.644Z,1017.57
2019-04-11T06:27:04.010Z,1017.59
2019-04-11T06:28:04.102Z,1017.61
2019-04-11T06:30:03.664Z,1017.61
2019-04-11T06:31:04.884Z,1017.61
2019-04-11T06:32:03.689Z,1017.64
2019-04-11T06:33:04.612Z,1017.66
2019-04-11T06:34:04.941Z,1017.68
2019-04-11T06:35:04.045Z,1017.67
2019-04-11T06:36:04.285Z,1017.73
2019-04-11T06:37:03.780Z,1017.72
2019-04-11T06:38:04.112Z,1017.75
2019-04-11T06:39:05.037Z,1017.71
2019-04-11T06:41:03.775Z,1017.75
2019-04-11T06:43:04.236Z,1017.82
2019-04-11T06:44:04.758Z,1017.80
2019-04-11T06:45:06.046Z,1017.76
2019-04-11T06:46:04.962Z,1017.81
2019-04-11T06:47:05.250Z,1017.82
2019-04-11T06:48:05.204Z,1017.85
2019-04-11T06:49:04.497Z,1017.84
2019-04-11T06:50:03.947Z,1017.84
2019-04-11T06:51:03.946Z,1017.86
2019-04-11T06:52:04.370Z,1017.91
2019-04-11T06:53:04.476Z,1017.90
2019-04-11T06:54:04.469Z,1017.90
2019-04-11T06:55:04.589Z,1017.89
2019-04-11T06:56:04.136Z,1017.88
2019-04-11T06:57:03.932Z,1017.92
2019-04-11T06:58:04.770Z,1017.89
2019-04-11T06:59:04.025Z,1017.89
2019-04-11T07:00:05.109Z,1017.96
2019-04-11T07:01:05.416Z,1017.94
2019-04-11T07:02:12.380Z,1017.97
2019-04-11T07:03:05.608Z,1017.99
2019-04-11T07:04:05.031Z,1017.96
2019-04-11T07:05:04.549Z,1017.95
2019-04-11T07:06:05.027Z,1017.96
2019-04-11T07:07:04.474Z,1017.97
2019-04-11T07:08:05.425Z,1017.95
2019-04-11T07:09:05.406Z,1018.00
2019-04-11T07:10:04.225Z,1018.00
2019-04-11T07:11:04.119Z,1017.99
2019-04-11T07:12:05.550Z,1018.00
2019-04-11T07:13:04.167Z,1018.00
2019-04-11T07:14:04.178Z,1017.99
2019-04-11T07:15:04.517Z,1017.97
2019-04-11T07:16:04.719Z,1017.97
2019-04-11T07:17:07.211Z,1017.94
2019-04-11T07:18:07.075Z,1017.99
2019-04-11T07:19:04.912Z,1017.98
2019-04-11T07:20:04.538Z,1018.00
2019-04-11T07:21:04.184Z,1017.96
2019-04-11T07:22:04.641Z,1017.99
2019-04-11T07:23:05.898Z,1017.98
2019-04-11T07:24:05.400Z,1018.02
2019-04-11T07:25:04.301Z,1018.03
2019-04-11T07:26:04.518Z,1018.03
2019-04-11T07:27:04.275Z,1018.05
2019-04-11T07:28:04.303Z,1018.04
2019-04-11T07:30:05.238Z,1018.07
2019-04-11T07:32:04.877Z,1018.05
2019-04-11T07:33:04.307Z,1018.09
2019-04-11T07:34:04.319Z,1018.04
2019-04-11T07:35:04.815Z,1018.04
2019-04-11T07:36:04.332Z,1018.10
2019-04-11T07:38:05.309Z,1018.04
2019-04-11T07:39:05.554Z,1018.04
2019-04-11T07:40:05.868Z,1018.10
2019-04-11T07:41:04.395Z,1018.08
2019-04-11T07:42:06.943Z,1018.10
2019-04-11T07:44:04.405Z,1018.11
2019-04-11T07:45:04.412Z,1018.14
2019-04-11T07:46:04.673Z,1018.13
2019-04-11T07:47:14.584Z,1018.12
2019-04-11T07:48:07.198Z,1018.09
2019-04-11T07:49:05.793Z,1018.15
2019-04-11T07:50:05.819Z,1018.18
2019-04-11T07:51:04.479Z,1018.16
2019-04-11T07:52:04.667Z,1018.11
2019-04-11T07:53:05.008Z,1018.13
2019-04-11T07:54:04.797Z,1018.12
2019-04-11T07:55:06.681Z,1018.10
2019-04-11T07:56:05.085Z,1018.12
2019-04-11T07:59:05.110Z,1018.14
2019-04-11T08:00:05.910Z,1018.13
2019-04-11T08:01:04.879Z,1018.17
2019-04-11T08:03:04.626Z,1018.15
2019-04-11T08:04:04.627Z,1018.15
2019-04-11T08:05:04.693Z,1018.20
2019-04-11T08:06:05.671Z,1018.18
2019-04-11T08:07:04.805Z,1018.16
2019-04-11T08:08:06.273Z,1018.17
2019-04-11T08:09:05.082Z,1018.15
2019-04-11T08:10:05.824Z,1018.19
2019-04-11T08:11:04.711Z,1018.17
2019-04-11T08:12:04.821Z,1018.18
2019-04-11T08:13:05.852Z,1018.19
2019-04-11T08:14:04.734Z,1018.15
2019-04-11T08:15:04.923Z,1018.17
2019-04-11T08:16:06.160Z,1018.20
2019-04-11T08:17:04.766Z,1018.18
2019-04-11T08:18:04.775Z,1018.19
2019-04-11T08:19:05.539Z,1018.19
2019-04-11T08:20:05.063Z,1018.17
2019-04-11T08:21:05.932Z,1018.19
2019-04-11T08:22:04.807Z,1018.22
2019-04-11T08:23:05.580Z,1018.20
2019-04-11T08:24:04.991Z,1018.23
2019-04-11T08:25:05.597Z,1018.23
2019-04-11T08:26:06.058Z,1018.25
2019-04-11T08:27:05.400Z,1018.28
2019-04-11T08:28:07.839Z,1018.25
2019-04-11T08:29:11.676Z,1018.30
2019-04-11T08:30:04.965Z,1018.31
2019-04-11T08:31:05.614Z,1018.30
2019-04-11T08:32:05.087Z,1018.28
2019-04-11T08:33:07.496Z,1018.25
2019-04-11T08:34:05.206Z,1018.29
2019-04-11T08:35:06.018Z,1018.25
2019-04-11T08:36:05.821Z,1018.28
2019-04-11T08:37:05.434Z,1018.28
2019-04-11T08:38:05.709Z,1018.27
2019-04-11T08:39:06.828Z,1018.28
2019-04-11T08:40:05.866Z,1018.29
2019-04-11T08:41:05.166Z,1018.28
2019-04-11T08:42:05.236Z,1018.29
2019-04-11T08:43:05.200Z,1018.28
2019-04-11T08:44:05.621Z,1018.33
2019-04-11T08:46:05.093Z,1018.34
2019-04-11T08:47:05.180Z,1018.32
2019-04-11T08:48:05.094Z,1018.34
2019-04-11T08:49:05.663Z,1018.34
2019-04-11T08:50:06.102Z,1018.34
2019-04-11T08:51:05.569Z,1018.37
2019-04-11T08:52:05.538Z,1018.34
2019-04-11T08:53:05.173Z,1018.39
2019-04-11T08:54:05.228Z,1018.36
2019-04-11T08:55:06.226Z,1018.39
2019-04-11T08:56:05.549Z,1018.41
2019-04-11T08:57:05.394Z,1018.40
2019-04-11T08:58:06.430Z,1018.43
2019-04-11T08:59:05.304Z,1018.42
2019-04-11T09:00:06.155Z,1018.39
2019-04-11T09:02:05.254Z,1018.38
2019-04-11T09:04:10.001Z,1018.36
2019-04-11T09:05:12.058Z,1018.35
2019-04-11T09:06:06.322Z,1018.35
2019-04-11T09:07:05.331Z,1018.35
2019-04-11T09:08:05.813Z,1018.35
2019-04-11T09:09:05.348Z,1018.33
2019-04-11T09:10:05.950Z,1018.33
2019-04-11T09:11:06.470Z,1018.36
2019-04-11T09:12:06.446Z,1018.34
2019-04-11T09:13:05.396Z,1018.34
2019-04-11T09:14:06.110Z,1018.32
2019-04-11T09:15:05.987Z,1018.36
2019-04-11T09:16:05.597Z,1018.38
2019-04-11T09:18:09.018Z,1018.36
2019-04-11T09:19:06.285Z,1018.36
2019-04-11T09:20:05.554Z,1018.39
2019-04-11T09:21:05.548Z,1018.36
2019-04-11T09:22:06.731Z,1018.37
2019-04-11T09:23:05.858Z,1018.42
2019-04-11T09:24:06.177Z,1018.39
2019-04-11T09:25:05.531Z,1018.37
2019-04-11T09:26:05.558Z,1018.41
2019-04-11T09:27:06.593Z,1018.43
2019-04-11T09:28:05.554Z,1018.45
2019-04-11T09:29:06.816Z,1018.41
2019-04-11T09:31:08.936Z,1018.44
2019-04-11T09:32:07.634Z,1018.41
2019-04-11T09:34:05.846Z,1018.43
2019-04-11T09:35:06.190Z,1018.46
2019-04-11T09:36:07.911Z,1018.43
2019-04-11T09:37:05.666Z,1018.41
2019-04-11T09:38:06.388Z,1018.49
2019-04-11T09:39:06.613Z,1018.52
2019-04-11T09:40:05.879Z,1018.50
2019-04-11T09:41:06.350Z,1018.43
2019-04-11T09:42:07.080Z,1018.41
2019-04-11T09:43:05.753Z,1018.44
2019-04-11T09:44:06.556Z,1018.46
2019-04-11T09:45:06.662Z,1018.41
2019-04-11T09:46:06.174Z,1018.45
2019-04-11T09:47:05.916Z,1018.37
2019-04-11T09:48:12.067Z,1018.39
2019-04-11T09:49:06.787Z,1018.41
2019-04-11T09:50:07.650Z,1018.39
2019-04-11T09:51:07.277Z,1018.39
2019-04-11T09:52:07.298Z,1018.39
2019-04-11T09:53:06.398Z,1018.42
2019-04-11T09:54:05.916Z,1018.43
2019-04-11T09:55:06.563Z,1018.44
2019-04-11T09:56:06.875Z,1018.42
2019-04-11T09:58:06.687Z,1018.45
2019-04-11T10:00:06.894Z,1018.41
2019-04-11T10:02:06.142Z,1018.45
2019-04-11T10:04:06.516Z,1018.41
2019-04-11T10:05:07.407Z,1018.40
2019-04-11T10:06:07.228Z,1018.35
2019-04-11T10:07:06.045Z,1018.37
2019-04-11T10:08:06.486Z,1018.33
2019-04-11T10:09:06.081Z,1018.35
2019-04-11T10:10:06.088Z,1018.37
2019-04-11T10:11:07.896Z,1018.44
2019-04-11T10:12:06.562Z,1018.41
2019-04-11T10:13:06.815Z,1018.35
2019-04-11T10:15:07.182Z,1018.43
2019-04-11T10:17:06.712Z,1018.43
2019-04-11T10:18:19.606Z,1018.42
2019-04-11T10:19:07.467Z,1018.40
2019-04-11T10:20:06.627Z,1018.45
2019-04-11T10:21:07.032Z,1018.47
2019-04-11T10:22:07.223Z,1018.47
2019-04-11T10:24:07.318Z,1018.46
2019-04-11T10:26:07.593Z,1018.50
2019-04-11T10:27:06.957Z,1018.43
2019-04-11T10:28:06.450Z,1018.44
2019-04-11T10:30:06.614Z,1018.45
2019-04-11T10:31:06.496Z,1018.47
2019-04-11T10:32:06.747Z,1018.36
2019-04-11T10:33:06.657Z,1018.43
2019-04-11T10:34:06.415Z,1018.36
2019-04-11T10:35:06.461Z,1018.36
2019-04-11T10:36:07.157Z,1018.35
2019-04-11T10:37:07.432Z,1018.34
2019-04-11T10:39:06.534Z,1018.32
2019-04-11T10:42:06.736Z,1018.37
2019-04-11T10:43:07.724Z,1018.29
2019-04-11T10:44:07.583Z,1018.28
2019-04-11T10:45:06.748Z,1018.34
2019-04-11T10:46:07.155Z,1018.32
2019-04-11T10:47:08.381Z,1018.24
2019-04-11T10:48:07.435Z,1018.25
2019-04-11T10:49:07.473Z,1018.25
2019-04-11T10:50:07.042Z,1018.26
2019-04-11T10:52:06.855Z,1018.25
2019-04-11T10:53:06.926Z,1018.32
2019-04-11T10:54:08.471Z,1018.28
2019-04-11T10:55:07.449Z,1018.31
2019-04-11T10:56:06.682Z,1018.31
2019-04-11T10:57:07.562Z,1018.28
2019-04-11T10:58:06.830Z,1018.35
2019-04-11T10:59:07.142Z,1018.39
2019-04-11T11:00:07.183Z,1018.34
2019-04-11T11:01:07.533Z,1018.38
2019-04-11T11:02:06.791Z,1018.40
2019-04-11T11:03:06.797Z,1018.32
2019-04-11T11:04:07.369Z,1018.32
2019-04-11T11:05:07.362Z,1018.37
2019-04-11T11:06:07.253Z,1018.35
2019-04-11T11:07:07.084Z,1018.35
2019-04-11T11:08:06.898Z,1018.36
2019-04-11T11:09:07.820Z,1018.38
2019-04-11T11:10:07.157Z,1018.32
2019-04-11T11:11:08.091Z,1018.39
2019-04-11T11:12:06.896Z,1018.34
2019-04-11T11:14:07.097Z,1018.31
2019-04-11T11:15:07.209Z,1018.35
2019-04-11T11:17:06.961Z,1018.35
2019-04-11T11:18:35.062Z,1018.31
2019-04-11T11:19:31.616Z,1018.32
2019-04-11T11:20:17.962Z,1018.34
2019-04-11T11:21:07.440Z,1018.35
2019-04-11T11:22:07.020Z,1018.32
2019-04-11T11:23:10.955Z,1018.39
2019-04-11T11:24:08.730Z,1018.35
2019-04-11T11:25:11.599Z,1018.30
2019-04-11T11:26:07.123Z,1018.37
2019-04-11T11:27:07.424Z,1018.41
2019-04-11T11:28:07.489Z,1018.37
2019-04-11T11:29:10.267Z,1018.36
2019-04-11T11:30:08.246Z,1018.38
2019-04-11T11:31:07.508Z,1018.38
2019-04-11T11:32:07.229Z,1018.42
2019-04-11T11:33:07.865Z,1018.44
2019-04-11T11:34:07.262Z,1018.39
2019-04-11T11:35:07.400Z,1018.48
2019-04-11T11:37:07.348Z,1018.47
2019-04-11T11:38:07.230Z,1018.50
2019-04-11T11:39:07.250Z,1018.52
2019-04-11T11:40:12.850Z,1018.56
2019-04-11T11:41:07.981Z,1018.51
2019-04-11T11:42:08.254Z,1018.47
2019-04-11T11:43:08.565Z,1018.50
2019-04-11T11:44:07.677Z,1018.49
2019-04-11T11:46:07.837Z,1018.50
2019-04-11T11:47:08.364Z,1018.54
2019-04-11T11:48:13.695Z,1018.53
2019-04-11T11:50:10.497Z,1018.52
2019-04-11T11:51:07.391Z,1018.47
2019-04-11T11:52:07.407Z,1018.48
2019-04-11T11:53:10.341Z,1018.50
2019-04-11T11:55:08.294Z,1018.54
2019-04-11T11:56:07.588Z,1018.47
2019-04-11T11:57:08.647Z,1018.47
2019-04-11T11:58:07.649Z,1018.46
2019-04-11T11:59:09.109Z,1018.46
2019-04-11T12:00:07.497Z,1018.45
2019-04-11T12:01:09.397Z,1018.48
2019-04-11T12:02:08.494Z,1018.45
2019-04-11T12:03:08.986Z,1018.48
2019-04-11T12:04:08.601Z,1018.49
2019-04-11T12:05:12.462Z,1018.48
2019-04-11T12:06:09.522Z,1018.50
2019-04-11T12:07:08.663Z,1018.52
2019-04-11T12:08:10.819Z,1018.48
2019-04-11T12:09:07.890Z,1018.51
2019-04-11T12:10:09.038Z,1018.47
2019-04-11T12:11:08.158Z,1018.45
2019-04-11T12:12:08.213Z,1018.49
2019-04-11T12:13:12.815Z,1018.47
2019-04-11T12:14:07.769Z,1018.48
2019-04-11T12:15:09.747Z,1018.47
2019-04-11T12:16:07.941Z,1018.45
2019-04-11T12:17:08.429Z,1018.46
2019-04-11T12:18:11.045Z,1018.45
2019-04-11T12:19:10.814Z,1018.47
2019-04-11T12:20:11.690Z,1018.48
2019-04-11T12:21:08.035Z,1018.50
2019-04-11T12:22:08.847Z,1018.50
2019-04-11T12:23:08.766Z,1018.47
2019-04-11T12:24:08.509Z,1018.42
2019-04-11T12:25:09.068Z,1018.46
2019-04-11T12:26:10.516Z,1018.45
2019-04-11T12:27:09.792Z,1018.44
2019-04-11T12:28:13.141Z,1018.50
2019-04-11T12:29:10.243Z,1018.49
2019-04-11T12:30:09.531Z,1018.43
2019-04-11T12:31:09.282Z,1018.44
2019-04-11T12:32:10.296Z,1018.46
2019-04-11T12:33:08.932Z,1018.44
2019-04-11T12:34:08.154Z,1018.46
2019-04-11T12:35:08.236Z,1018.44
2019-04-11T12:36:12.469Z,1018.46
2019-04-11T12:37:08.981Z,1018.44
2019-04-11T12:38:07.998Z,1018.44
2019-04-11T12:39:08.018Z,1018.45
2019-04-11T12:40:09.646Z,1018.45
2019-04-11T12:41:08.026Z,1018.42
2019-04-11T12:42:08.041Z,1018.43
2019-04-11T12:43:09.614Z,1018.44
2019-04-11T12:44:08.652Z,1018.50
2019-04-11T12:45:08.080Z,1018.48
2019-04-11T12:46:08.092Z,1018.43
2019-04-11T12:47:09.430Z,1018.45
2019-04-11T12:48:11.949Z,1018.45
2019-04-11T12:49:08.133Z,1018.46
2019-04-11T12:50:08.155Z,1018.42
2019-04-11T12:51:08.177Z,1018.46
2019-04-11T12:52:08.253Z,1018.38
2019-04-11T12:53:08.294Z,1018.42
2019-04-11T12:54:08.246Z,1018.47
2019-04-11T12:55:08.367Z,1018.41
2019-04-11T12:56:08.399Z,1018.39
2019-04-11T12:57:08.750Z,1018.41
2019-04-11T12:58:08.745Z,1018.38
2019-04-11T13:00:08.923Z,1018.36
2019-04-11T13:01:08.620Z,1018.28
2019-04-11T13:02:08.734Z,1018.36